Hauptseite
METAR-TAF:

METAR-TAF

Flughäfen :

Sullivan County International Airport

Monticello, New York, Vereinigte Staaten

Breite: 41-42N, Länge: 074-48W, Höhe: 428 m

Beobachtung

Neuester Wetterbericht von vor 18 Minuten, um 22:56 UTC
Windstille
Temperatur 14°C
Luftfeuchtigkeit 67%
Luftdruck 1012 hPa
Sichtweite: 16.1 km
Geschlossene Wolkendecke in der Höhe von 6500 ft

METAR: KMSV 142256Z AUTO 00000KT 10SM OVC065 14/08 A2989 RMK AO2 SLPNO T01390083 $

Zeit: 19:14 (23:14 UTC)


TAF: fehlend

Wetterbeobachtungen und Prognosen von mehr als 4000 Flughäfen (METAR und TAF Bericht).

Die verfügbaren Stationen werden durch gelbe und rote Markierungen auf der Karte dargestellt.

Führen Sie die Maus auf sie, um den Namen der Station zu sehen.

Darauf klicken, um die Beobachtung von Wetterbeobachtungen und Prognosen zu sehen.

Um die Karte zu ändern : klicken Sie auf den grünen Tasten mit einem schwarzen Kreuz Zum Vergrößern, auf den grünen Button mit einem Gedankenstrich zu verkleinern, oder auf die grünen Pfeile für benachbarte Karten.


METAR-TAF: